sensor_id;sensor_type;location;lat;lon;timestamp;P1;durP1;ratioP1;P2;durP2;ratioP2
42702;SDS011;28341;52.064;4.920;2023-11-21T00:01:20;20.90;;;12.15;;
42702;SDS011;28341;52.064;4.920;2023-11-21T00:03:27;20.98;;;12.07;;
42702;SDS011;28341;52.064;4.920;2023-11-21T00:05:29;19.27;;;10.63;;
42702;SDS011;28341;52.064;4.920;2023-11-21T00:07:35;16.00;;;10.95;;
42702;SDS011;28341;52.064;4.920;2023-11-21T00:09:40;19.58;;;10.57;;
42702;SDS011;28341;52.064;4.920;2023-11-21T00:11:44;14.73;;;9.85;;
42702;SDS011;28341;52.064;4.920;2023-11-21T00:13:46;15.70;;;9.90;;
42702;SDS011;28341;52.064;4.920;2023-11-21T00:15:51;17.90;;;10.15;;
42702;SDS011;28341;52.064;4.920;2023-11-21T00:17:55;18.85;;;10.50;;
42702;SDS011;28341;52.064;4.920;2023-11-21T00:20:02;17.77;;;10.10;;
42702;SDS011;28341;52.064;4.920;2023-11-21T00:22:08;17.77;;;10.95;;
42702;SDS011;28341;52.064;4.920;2023-11-21T00:24:13;17.58;;;10.68;;
42702;SDS011;28341;52.064;4.920;2023-11-21T00:26:18;24.70;;;11.80;;
42702;SDS011;28341;52.064;4.920;2023-11-21T00:28:32;23.48;;;11.98;;
42702;SDS011;28341;52.064;4.920;2023-11-21T00:30:36;20.13;;;11.75;;
42702;SDS011;28341;52.064;4.920;2023-11-21T00:32:41;18.70;;;11.63;;
42702;SDS011;28341;52.064;4.920;2023-11-21T00:34:45;20.77;;;11.95;;
42702;SDS011;28341;52.064;4.920;2023-11-21T00:36:52;20.42;;;11.93;;
42702;SDS011;28341;52.064;4.920;2023-11-21T00:38:55;19.85;;;11.35;;
42702;SDS011;28341;52.064;4.920;2023-11-21T00:40:59;18.63;;;11.63;;
42702;SDS011;28341;52.064;4.920;2023-11-21T00:43:03;18.52;;;11.25;;
42702;SDS011;28341;52.064;4.920;2023-11-21T00:45:08;20.05;;;11.40;;
42702;SDS011;28341;52.064;4.920;2023-11-21T00:47:13;18.42;;;10.77;;
42702;SDS011;28341;52.064;4.920;2023-11-21T00:49:15;16.95;;;11.07;;
42702;SDS011;28341;52.064;4.920;2023-11-21T00:51:19;24.10;;;12.27;;
42702;SDS011;28341;52.064;4.920;2023-11-21T00:53:27;23.92;;;11.82;;
42702;SDS011;28341;52.064;4.920;2023-11-21T00:55:32;22.52;;;11.75;;
42702;SDS011;28341;52.064;4.920;2023-11-21T00:57:36;20.50;;;12.20;;
42702;SDS011;28341;52.064;4.920;2023-11-21T00:59:40;23.08;;;12.48;;
42702;SDS011;28341;52.064;4.920;2023-11-21T01:01:45;26.60;;;12.85;;
42702;SDS011;28341;52.064;4.920;2023-11-21T01:03:50;26.70;;;13.80;;
42702;SDS011;28341;52.064;4.920;2023-11-21T01:05:54;33.55;;;14.82;;
42702;SDS011;28341;52.064;4.920;2023-11-21T01:07:56;27.48;;;14.93;;
42702;SDS011;28341;52.064;4.920;2023-11-21T01:10:03;35.78;;;14.68;;
42702;SDS011;28341;52.064;4.920;2023-11-21T01:12:09;25.50;;;14.02;;
42702;SDS011;28341;52.064;4.920;2023-11-21T01:14:14;27.00;;;13.75;;
42702;SDS011;28341;52.064;4.920;2023-11-21T01:16:18;23.63;;;12.35;;
42702;SDS011;28341;52.064;4.920;2023-11-21T01:18:20;24.33;;;12.65;;
42702;SDS011;28341;52.064;4.920;2023-11-21T01:20:26;23.35;;;13.32;;
42702;SDS011;28341;52.064;4.920;2023-11-21T01:22:30;24.48;;;11.90;;
42702;SDS011;28341;52.064;4.920;2023-11-21T01:24:34;23.55;;;11.90;;
42702;SDS011;28341;52.064;4.920;2023-11-21T01:26:39;22.55;;;12.88;;
42702;SDS011;28341;52.064;4.920;2023-11-21T01:28:43;25.08;;;12.52;;
42702;SDS011;28341;52.064;4.920;2023-11-21T01:30:49;24.85;;;12.32;;
42702;SDS011;28341;52.064;4.920;2023-11-21T01:32:56;23.10;;;11.70;;
42702;SDS011;28341;52.064;4.920;2023-11-21T01:35:00;22.85;;;12.18;;
42702;SDS011;28341;52.064;4.920;2023-11-21T01:37:05;24.27;;;12.15;;
42702;SDS011;28341;52.064;4.920;2023-11-21T01:39:12;21.83;;;12.38;;
42702;SDS011;28341;52.064;4.920;2023-11-21T01:41:23;26.23;;;12.50;;
42702;SDS011;28341;52.064;4.920;2023-11-21T01:43:30;33.80;;;15.00;;
42702;SDS011;28341;52.064;4.920;2023-11-21T01:45:34;39.20;;;15.70;;
42702;SDS011;28341;52.064;4.920;2023-11-21T01:47:39;30.73;;;15.27;;
42702;SDS011;28341;52.064;4.920;2023-11-21T01:49:45;31.95;;;14.95;;
42702;SDS011;28341;52.064;4.920;2023-11-21T01:51:49;31.98;;;15.05;;
42702;SDS011;28341;52.064;4.920;2023-11-21T01:53:56;35.38;;;16.50;;
42702;SDS011;28341;52.064;4.920;2023-11-21T01:56:00;40.10;;;17.55;;
42702;SDS011;28341;52.064;4.920;2023-11-21T01:58:04;42.25;;;17.58;;
42702;SDS011;28341;52.064;4.920;2023-11-21T02:00:12;35.80;;;15.77;;
42702;SDS011;28341;52.064;4.920;2023-11-21T02:02:20;42.38;;;17.95;;
42702;SDS011;28341;52.064;4.920;2023-11-21T02:04:22;42.58;;;18.73;;
42702;SDS011;28341;52.064;4.920;2023-11-21T02:06:26;41.90;;;18.60;;
42702;SDS011;28341;52.064;4.920;2023-11-21T02:08:31;38.10;;;17.42;;
42702;SDS011;28341;52.064;4.920;2023-11-21T02:10:38;35.42;;;16.45;;
42702;SDS011;28341;52.064;4.920;2023-11-21T02:12:43;36.28;;;17.77;;
42702;SDS011;28341;52.064;4.920;2023-11-21T02:14:45;36.53;;;17.00;;
42702;SDS011;28341;52.064;4.920;2023-11-21T02:16:52;36.47;;;17.58;;
42702;SDS011;28341;52.064;4.920;2023-11-21T02:18:54;33.95;;;16.58;;
42702;SDS011;28341;52.064;4.920;2023-11-21T02:20:59;34.53;;;16.15;;
42702;SDS011;28341;52.064;4.920;2023-11-21T02:23:06;36.30;;;16.65;;
42702;SDS011;28341;52.064;4.920;2023-11-21T02:25:10;36.70;;;16.77;;
42702;SDS011;28341;52.064;4.920;2023-11-21T02:27:12;34.95;;;16.00;;
42702;SDS011;28341;52.064;4.920;2023-11-21T02:29:22;33.42;;;15.77;;
42702;SDS011;28341;52.064;4.920;2023-11-21T02:31:28;34.15;;;15.68;;
42702;SDS011;28341;52.064;4.920;2023-11-21T02:33:33;34.25;;;14.93;;
42702;SDS011;28341;52.064;4.920;2023-11-21T02:35:37;31.10;;;15.75;;
42702;SDS011;28341;52.064;4.920;2023-11-21T02:37:43;37.83;;;16.38;;
42702;SDS011;28341;52.064;4.920;2023-11-21T02:39:48;29.70;;;15.25;;
42702;SDS011;28341;52.064;4.920;2023-11-21T02:41:52;33.47;;;16.05;;
42702;SDS011;28341;52.064;4.920;2023-11-21T02:43:57;37.05;;;17.50;;
42702;SDS011;28341;52.064;4.920;2023-11-21T02:45:59;33.58;;;15.90;;
42702;SDS011;28341;52.064;4.920;2023-11-21T02:48:03;28.27;;;16.13;;
42702;SDS011;28341;52.064;4.920;2023-11-21T02:50:08;32.88;;;15.70;;
42702;SDS011;28341;52.064;4.920;2023-11-21T02:52:13;32.75;;;16.25;;
42702;SDS011;28341;52.064;4.920;2023-11-21T02:54:17;27.40;;;14.52;;
42702;SDS011;28341;52.064;4.920;2023-11-21T02:56:24;33.60;;;15.88;;
42702;SDS011;28341;52.064;4.920;2023-11-21T02:58:29;31.67;;;17.00;;
42702;SDS011;28341;52.064;4.920;2023-11-21T03:00:33;36.65;;;16.15;;
42702;SDS011;28341;52.064;4.920;2023-11-21T03:02:38;37.85;;;16.17;;
42702;SDS011;28341;52.064;4.920;2023-11-21T03:04:42;38.15;;;16.77;;
42702;SDS011;28341;52.064;4.920;2023-11-21T03:06:48;37.83;;;16.92;;
42702;SDS011;28341;52.064;4.920;2023-11-21T03:08:53;38.30;;;17.02;;
42702;SDS011;28341;52.064;4.920;2023-11-21T03:10:54;35.63;;;16.92;;
42702;SDS011;28341;52.064;4.920;2023-11-21T03:13:01;33.70;;;16.38;;
42702;SDS011;28341;52.064;4.920;2023-11-21T03:15:06;32.60;;;16.25;;
42702;SDS011;28341;52.064;4.920;2023-11-21T03:17:11;31.55;;;16.60;;
42702;SDS011;28341;52.064;4.920;2023-11-21T03:19:16;34.70;;;16.45;;
42702;SDS011;28341;52.064;4.920;2023-11-21T03:21:22;37.30;;;17.17;;
42702;SDS011;28341;52.064;4.920;2023-11-21T03:23:26;34.35;;;15.98;;
42702;SDS011;28341;52.064;4.920;2023-11-21T03:25:31;34.58;;;15.27;;
42702;SDS011;28341;52.064;4.920;2023-11-21T03:27:35;36.35;;;16.83;;
42702;SDS011;28341;52.064;4.920;2023-11-21T03:29:42;34.47;;;16.40;;
42702;SDS011;28341;52.064;4.920;2023-11-21T03:31:47;34.53;;;16.33;;
42702;SDS011;28341;52.064;4.920;2023-11-21T03:33:51;36.15;;;15.57;;
42702;SDS011;28341;52.064;4.920;2023-11-21T03:35:54;38.72;;;16.70;;
42702;SDS011;28341;52.064;4.920;2023-11-21T03:37:59;35.97;;;16.30;;
42702;SDS011;28341;52.064;4.920;2023-11-21T03:40:04;36.38;;;16.30;;
42702;SDS011;28341;52.064;4.920;2023-11-21T03:42:10;34.80;;;16.20;;
42702;SDS011;28341;52.064;4.920;2023-11-21T03:44:12;33.28;;;15.73;;
42702;SDS011;28341;52.064;4.920;2023-11-21T03:46:21;35.38;;;16.25;;
42702;SDS011;28341;52.064;4.920;2023-11-21T03:48:26;33.38;;;15.65;;
42702;SDS011;28341;52.064;4.920;2023-11-21T03:50:30;30.23;;;15.05;;
42702;SDS011;28341;52.064;4.920;2023-11-21T03:52:35;30.20;;;15.50;;
42702;SDS011;28341;52.064;4.920;2023-11-21T03:54:38;40.55;;;15.45;;
42702;SDS011;28341;52.064;4.920;2023-11-21T03:56:43;40.38;;;16.08;;
42702;SDS011;28341;52.064;4.920;2023-11-21T03:58:45;35.92;;;15.23;;
42702;SDS011;28341;52.064;4.920;2023-11-21T04:00:49;40.20;;;16.77;;
42702;SDS011;28341;52.064;4.920;2023-11-21T04:02:56;31.23;;;15.90;;
42702;SDS011;28341;52.064;4.920;2023-11-21T04:05:01;31.17;;;15.50;;
42702;SDS011;28341;52.064;4.920;2023-11-21T04:07:03;31.30;;;16.15;;
42702;SDS011;28341;52.064;4.920;2023-11-21T04:09:08;27.67;;;14.75;;
42702;SDS011;28341;52.064;4.920;2023-11-21T04:11:10;35.97;;;17.65;;
42702;SDS011;28341;52.064;4.920;2023-11-21T04:13:16;34.05;;;15.07;;
42702;SDS011;28341;52.064;4.920;2023-11-21T04:15:20;31.40;;;14.75;;
42702;SDS011;28341;52.064;4.920;2023-11-21T04:17:22;30.30;;;14.30;;
42702;SDS011;28341;52.064;4.920;2023-11-21T04:19:29;35.20;;;15.18;;
42702;SDS011;28341;52.064;4.920;2023-11-21T04:21:31;33.65;;;15.43;;
42702;SDS011;28341;52.064;4.920;2023-11-21T04:23:35;42.10;;;16.85;;
42702;SDS011;28341;52.064;4.920;2023-11-21T04:25:40;36.17;;;15.70;;
42702;SDS011;28341;52.064;4.920;2023-11-21T04:27:45;31.02;;;15.55;;
42702;SDS011;28341;52.064;4.920;2023-11-21T04:29:49;32.70;;;15.68;;
42702;SDS011;28341;52.064;4.920;2023-11-21T04:31:51;33.13;;;15.00;;
42702;SDS011;28341;52.064;4.920;2023-11-21T04:33:55;29.42;;;15.10;;
42702;SDS011;28341;52.064;4.920;2023-11-21T04:36:03;27.45;;;15.63;;
42702;SDS011;28341;52.064;4.920;2023-11-21T04:38:08;28.67;;;15.20;;
42702;SDS011;28341;52.064;4.920;2023-11-21T04:40:12;30.25;;;14.70;;
42702;SDS011;28341;52.064;4.920;2023-11-21T04:42:14;38.17;;;15.75;;
42702;SDS011;28341;52.064;4.920;2023-11-21T04:44:18;44.58;;;16.45;;
42702;SDS011;28341;52.064;4.920;2023-11-21T04:46:23;33.90;;;16.33;;
42702;SDS011;28341;52.064;4.920;2023-11-21T04:48:27;33.92;;;15.60;;
42702;SDS011;28341;52.064;4.920;2023-11-21T04:50:31;31.10;;;15.15;;
42702;SDS011;28341;52.064;4.920;2023-11-21T04:52:38;31.98;;;15.75;;
42702;SDS011;28341;52.064;4.920;2023-11-21T04:54:43;32.45;;;15.20;;
42702;SDS011;28341;52.064;4.920;2023-11-21T04:56:48;27.65;;;14.30;;
42702;SDS011;28341;52.064;4.920;2023-11-21T04:58:53;32.63;;;15.27;;
42702;SDS011;28341;52.064;4.920;2023-11-21T05:00:55;27.80;;;14.68;;
42702;SDS011;28341;52.064;4.920;2023-11-21T05:02:59;33.53;;;14.90;;
42702;SDS011;28341;52.064;4.920;2023-11-21T05:05:04;35.30;;;16.23;;
42702;SDS011;28341;52.064;4.920;2023-11-21T05:07:08;37.20;;;16.20;;
42702;SDS011;28341;52.064;4.920;2023-11-21T05:09:15;33.65;;;14.60;;
42702;SDS011;28341;52.064;4.920;2023-11-21T05:11:25;28.27;;;14.05;;
42702;SDS011;28341;52.064;4.920;2023-11-21T05:13:30;22.73;;;13.80;;
42702;SDS011;28341;52.064;4.920;2023-11-21T05:15:32;29.13;;;14.15;;
42702;SDS011;28341;52.064;4.920;2023-11-21T05:17:37;33.17;;;14.10;;
42702;SDS011;28341;52.064;4.920;2023-11-21T05:19:42;29.50;;;14.43;;
42702;SDS011;28341;52.064;4.920;2023-11-21T05:21:48;29.30;;;14.23;;
42702;SDS011;28341;52.064;4.920;2023-11-21T05:23:53;23.42;;;13.15;;
42702;SDS011;28341;52.064;4.920;2023-11-21T05:25:57;31.38;;;13.68;;
42702;SDS011;28341;52.064;4.920;2023-11-21T05:28:02;26.25;;;13.73;;
42702;SDS011;28341;52.064;4.920;2023-11-21T05:30:07;26.92;;;13.52;;
42702;SDS011;28341;52.064;4.920;2023-11-21T05:32:13;29.90;;;13.65;;
42702;SDS011;28341;52.064;4.920;2023-11-21T05:34:14;26.63;;;14.60;;
42702;SDS011;28341;52.064;4.920;2023-11-21T05:36:19;27.20;;;14.05;;
42702;SDS011;28341;52.064;4.920;2023-11-21T05:38:23;26.10;;;13.55;;
42702;SDS011;28341;52.064;4.920;2023-11-21T05:40:28;24.02;;;13.82;;
42702;SDS011;28341;52.064;4.920;2023-11-21T05:42:35;24.85;;;13.35;;
42702;SDS011;28341;52.064;4.920;2023-11-21T05:44:41;23.20;;;14.00;;
42702;SDS011;28341;52.064;4.920;2023-11-21T05:46:46;29.20;;;14.70;;
42702;SDS011;28341;52.064;4.920;2023-11-21T05:48:50;32.30;;;15.13;;
42702;SDS011;28341;52.064;4.920;2023-11-21T05:50:55;32.45;;;16.50;;
42702;SDS011;28341;52.064;4.920;2023-11-21T05:52:59;27.50;;;15.52;;
42702;SDS011;28341;52.064;4.920;2023-11-21T05:55:04;28.63;;;15.80;;
42702;SDS011;28341;52.064;4.920;2023-11-21T05:57:07;28.23;;;15.40;;
42702;SDS011;28341;52.064;4.920;2023-11-21T05:59:14;33.30;;;16.08;;
42702;SDS011;28341;52.064;4.920;2023-11-21T06:01:16;28.35;;;16.83;;
42702;SDS011;28341;52.064;4.920;2023-11-21T06:03:20;34.00;;;18.58;;
42702;SDS011;28341;52.064;4.920;2023-11-21T06:05:25;31.10;;;18.35;;
42702;SDS011;28341;52.064;4.920;2023-11-21T06:07:32;28.10;;;17.25;;
42702;SDS011;28341;52.064;4.920;2023-11-21T06:09:34;32.22;;;18.38;;
42702;SDS011;28341;52.064;4.920;2023-11-21T06:11:39;35.70;;;19.05;;
42702;SDS011;28341;52.064;4.920;2023-11-21T06:13:43;38.15;;;20.13;;
42702;SDS011;28341;52.064;4.920;2023-11-21T06:15:50;37.50;;;19.63;;
42702;SDS011;28341;52.064;4.920;2023-11-21T06:17:55;38.10;;;20.80;;
42702;SDS011;28341;52.064;4.920;2023-11-21T06:20:00;36.05;;;21.02;;
42702;SDS011;28341;52.064;4.920;2023-11-21T06:22:04;37.17;;;20.23;;
42702;SDS011;28341;52.064;4.920;2023-11-21T06:24:08;32.95;;;19.42;;
42702;SDS011;28341;52.064;4.920;2023-11-21T06:26:15;33.58;;;18.80;;
42702;SDS011;28341;52.064;4.920;2023-11-21T06:28:20;33.20;;;16.90;;
42702;SDS011;28341;52.064;4.920;2023-11-21T06:30:25;33.53;;;17.23;;
42702;SDS011;28341;52.064;4.920;2023-11-21T06:32:32;28.45;;;15.20;;
42702;SDS011;28341;52.064;4.920;2023-11-21T06:34:36;26.20;;;14.75;;
42702;SDS011;28341;52.064;4.920;2023-11-21T06:36:41;27.80;;;15.38;;
42702;SDS011;28341;52.064;4.920;2023-11-21T06:38:45;29.95;;;15.98;;
42702;SDS011;28341;52.064;4.920;2023-11-21T06:40:49;31.17;;;15.25;;
42702;SDS011;28341;52.064;4.920;2023-11-21T06:42:55;30.17;;;14.98;;
42702;SDS011;28341;52.064;4.920;2023-11-21T06:44:59;31.50;;;15.35;;
42702;SDS011;28341;52.064;4.920;2023-11-21T06:47:04;26.85;;;14.48;;
42702;SDS011;28341;52.064;4.920;2023-11-21T06:49:11;29.95;;;15.25;;
42702;SDS011;28341;52.064;4.920;2023-11-21T06:51:16;27.40;;;15.25;;
42702;SDS011;28341;52.064;4.920;2023-11-21T06:53:20;30.23;;;15.10;;
42702;SDS011;28341;52.064;4.920;2023-11-21T06:55:25;28.35;;;15.40;;
42702;SDS011;28341;52.064;4.920;2023-11-21T06:57:29;29.23;;;15.45;;
42702;SDS011;28341;52.064;4.920;2023-11-21T06:59:34;30.08;;;16.17;;
42702;SDS011;28341;52.064;4.920;2023-11-21T07:01:36;30.55;;;15.20;;
42702;SDS011;28341;52.064;4.920;2023-11-21T07:03:42;28.77;;;15.20;;
42702;SDS011;28341;52.064;4.920;2023-11-21T07:05:49;35.15;;;16.00;;
42702;SDS011;28341;52.064;4.920;2023-11-21T07:07:53;30.45;;;15.85;;
42702;SDS011;28341;52.064;4.920;2023-11-21T07:09:57;31.23;;;15.40;;
42702;SDS011;28341;52.064;4.920;2023-11-21T07:12:03;29.80;;;14.48;;
42702;SDS011;28341;52.064;4.920;2023-11-21T07:14:09;30.20;;;14.93;;
42702;SDS011;28341;52.064;4.920;2023-11-21T07:16:13;25.65;;;14.20;;
42702;SDS011;28341;52.064;4.920;2023-11-21T07:18:19;27.15;;;14.35;;
42702;SDS011;28341;52.064;4.920;2023-11-21T07:20:23;35.17;;;15.50;;
42702;SDS011;28341;52.064;4.920;2023-11-21T07:22:30;26.35;;;13.27;;
42702;SDS011;28341;52.064;4.920;2023-11-21T07:24:35;29.25;;;14.05;;
42702;SDS011;28341;52.064;4.920;2023-11-21T07:26:40;31.58;;;13.88;;
42702;SDS011;28341;52.064;4.920;2023-11-21T07:28:44;31.75;;;13.98;;
42702;SDS011;28341;52.064;4.920;2023-11-21T07:30:49;34.88;;;13.90;;
42702;SDS011;28341;52.064;4.920;2023-11-21T07:32:53;29.83;;;13.60;;
42702;SDS011;28341;52.064;4.920;2023-11-21T07:34:57;31.05;;;14.18;;
42702;SDS011;28341;52.064;4.920;2023-11-21T07:37:01;30.35;;;14.85;;
42702;SDS011;28341;52.064;4.920;2023-11-21T07:39:09;27.73;;;14.25;;
42702;SDS011;28341;52.064;4.920;2023-11-21T07:41:11;25.23;;;14.10;;
42702;SDS011;28341;52.064;4.920;2023-11-21T07:43:16;28.02;;;14.23;;
42702;SDS011;28341;52.064;4.920;2023-11-21T07:45:20;26.27;;;13.57;;
42702;SDS011;28341;52.064;4.920;2023-11-21T07:47:24;27.23;;;14.48;;
42702;SDS011;28341;52.064;4.920;2023-11-21T07:49:28;31.70;;;15.27;;
42702;SDS011;28341;52.064;4.920;2023-11-21T07:51:32;32.25;;;15.05;;
42702;SDS011;28341;52.064;4.920;2023-11-21T07:53:34;20.33;;;13.25;;
42702;SDS011;28341;52.064;4.920;2023-11-21T07:55:41;26.98;;;14.00;;
42702;SDS011;28341;52.064;4.920;2023-11-21T07:57:47;30.70;;;14.43;;
42702;SDS011;28341;52.064;4.920;2023-11-21T07:59:51;27.50;;;14.25;;
42702;SDS011;28341;52.064;4.920;2023-11-21T08:01:56;30.35;;;14.43;;
42702;SDS011;28341;52.064;4.920;2023-11-21T08:04:00;29.52;;;14.85;;
42702;SDS011;28341;52.064;4.920;2023-11-21T08:06:04;33.60;;;15.18;;
42702;SDS011;28341;52.064;4.920;2023-11-21T08:08:07;28.60;;;15.32;;
42702;SDS011;28341;52.064;4.920;2023-11-21T08:10:11;31.17;;;15.43;;
42702;SDS011;28341;52.064;4.920;2023-11-21T08:12:19;27.08;;;15.73;;
42702;SDS011;28341;52.064;4.920;2023-11-21T08:14:24;30.00;;;16.13;;
42702;SDS011;28341;52.064;4.920;2023-11-21T08:16:28;27.00;;;15.27;;
42702;SDS011;28341;52.064;4.920;2023-11-21T08:18:32;23.35;;;15.30;;
42702;SDS011;28341;52.064;4.920;2023-11-21T08:20:37;30.35;;;15.55;;
42702;SDS011;28341;52.064;4.920;2023-11-21T08:22:41;27.70;;;15.23;;
42702;SDS011;28341;52.064;4.920;2023-11-21T08:24:48;22.77;;;14.15;;
42702;SDS011;28341;52.064;4.920;2023-11-21T08:26:52;29.40;;;14.60;;
42702;SDS011;28341;52.064;4.920;2023-11-21T08:28:59;23.35;;;13.85;;
42702;SDS011;28341;52.064;4.920;2023-11-21T08:31:04;25.35;;;14.30;;
42702;SDS011;28341;52.064;4.920;2023-11-21T08:33:09;31.02;;;14.18;;
42702;SDS011;28341;52.064;4.920;2023-11-21T08:35:14;25.02;;;14.35;;
42702;SDS011;28341;52.064;4.920;2023-11-21T08:37:19;23.58;;;14.18;;
42702;SDS011;28341;52.064;4.920;2023-11-21T08:39:21;26.02;;;13.80;;
42702;SDS011;28341;52.064;4.920;2023-11-21T08:41:27;23.10;;;13.00;;
42702;SDS011;28341;52.064;4.920;2023-11-21T08:43:31;27.52;;;13.43;;
42702;SDS011;28341;52.064;4.920;2023-11-21T08:45:38;22.55;;;11.52;;
42702;SDS011;28341;52.064;4.920;2023-11-21T08:47:42;23.15;;;11.93;;
42702;SDS011;28341;52.064;4.920;2023-11-21T08:49:44;22.48;;;10.77;;
42702;SDS011;28341;52.064;4.920;2023-11-21T08:51:49;26.52;;;12.55;;
42702;SDS011;28341;52.064;4.920;2023-11-21T08:53:51;18.05;;;9.85;;
42702;SDS011;28341;52.064;4.920;2023-11-21T08:55:59;20.23;;;10.18;;
42702;SDS011;28341;52.064;4.920;2023-11-21T08:58:04;18.70;;;9.73;;
42702;SDS011;28341;52.064;4.920;2023-11-21T09:00:09;18.25;;;9.98;;
42702;SDS011;28341;52.064;4.920;2023-11-21T09:02:19;23.58;;;10.63;;
42702;SDS011;28341;52.064;4.920;2023-11-21T09:04:25;19.63;;;10.32;;
42702;SDS011;28341;52.064;4.920;2023-11-21T09:06:30;19.02;;;10.63;;
42702;SDS011;28341;52.064;4.920;2023-11-21T09:08:34;18.42;;;9.95;;
42702;SDS011;28341;52.064;4.920;2023-11-21T09:10:38;18.52;;;10.00;;
42702;SDS011;28341;52.064;4.920;2023-11-21T09:12:45;17.00;;;10.30;;
42702;SDS011;28341;52.064;4.920;2023-11-21T09:14:49;18.20;;;10.70;;
42702;SDS011;28341;52.064;4.920;2023-11-21T09:16:51;21.90;;;9.95;;
42702;SDS011;28341;52.064;4.920;2023-11-21T09:18:59;22.30;;;10.80;;
42702;SDS011;28341;52.064;4.920;2023-11-21T09:21:05;20.65;;;9.75;;
42702;SDS011;28341;52.064;4.920;2023-11-21T09:23:10;17.98;;;10.23;;
42702;SDS011;28341;52.064;4.920;2023-11-21T09:25:12;19.10;;;10.03;;
42702;SDS011;28341;52.064;4.920;2023-11-21T09:27:16;17.50;;;10.15;;
42702;SDS011;28341;52.064;4.920;2023-11-21T09:29:21;15.45;;;8.82;;
42702;SDS011;28341;52.064;4.920;2023-11-21T09:31:26;18.10;;;9.48;;
42702;SDS011;28341;52.064;4.920;2023-11-21T09:33:31;19.52;;;9.32;;
42702;SDS011;28341;52.064;4.920;2023-11-21T09:35:38;16.52;;;8.80;;
42702;SDS011;28341;52.064;4.920;2023-11-21T09:37:40;14.25;;;9.00;;
42702;SDS011;28341;52.064;4.920;2023-11-21T09:39:44;16.48;;;8.43;;
42702;SDS011;28341;52.064;4.920;2023-11-21T09:41:50;17.77;;;8.98;;
42702;SDS011;28341;52.064;4.920;2023-11-21T09:43:58;17.20;;;8.63;;
42702;SDS011;28341;52.064;4.920;2023-11-21T09:46:04;16.35;;;9.02;;
42702;SDS011;28341;52.064;4.920;2023-11-21T09:48:13;16.42;;;8.15;;
42702;SDS011;28341;52.064;4.920;2023-11-21T09:50:18;18.48;;;9.65;;
42702;SDS011;28341;52.064;4.920;2023-11-21T09:52:27;16.20;;;9.35;;
42702;SDS011;28341;52.064;4.920;2023-11-21T09:54:33;17.35;;;9.43;;
42702;SDS011;28341;52.064;4.920;2023-11-21T09:56:38;17.98;;;10.07;;
42702;SDS011;28341;52.064;4.920;2023-11-21T09:58:43;21.77;;;11.07;;
42702;SDS011;28341;52.064;4.920;2023-11-21T10:00:48;19.00;;;10.73;;
42702;SDS011;28341;52.064;4.920;2023-11-21T10:02:57;20.30;;;10.65;;
42702;SDS011;28341;52.064;4.920;2023-11-21T10:05:03;18.85;;;11.73;;
42702;SDS011;28341;52.064;4.920;2023-11-21T10:07:10;16.73;;;11.27;;
42702;SDS011;28341;52.064;4.920;2023-11-21T10:09:18;17.42;;;10.70;;
42702;SDS011;28341;52.064;4.920;2023-11-21T10:11:23;17.50;;;10.95;;
42702;SDS011;28341;52.064;4.920;2023-11-21T10:13:30;19.30;;;10.23;;
42702;SDS011;28341;52.064;4.920;2023-11-21T10:15:35;15.48;;;9.93;;
42702;SDS011;28341;52.064;4.920;2023-11-21T10:17:39;17.95;;;10.23;;
42702;SDS011;28341;52.064;4.920;2023-11-21T10:19:43;19.55;;;9.98;;
42702;SDS011;28341;52.064;4.920;2023-11-21T10:21:50;17.00;;;9.10;;
42702;SDS011;28341;52.064;4.920;2023-11-21T10:23:57;15.40;;;9.15;;
42702;SDS011;28341;52.064;4.920;2023-11-21T10:26:05;17.20;;;9.93;;
42702;SDS011;28341;52.064;4.920;2023-11-21T10:28:11;16.48;;;10.18;;
42702;SDS011;28341;52.064;4.920;2023-11-21T10:30:15;13.00;;;8.98;;
42702;SDS011;28341;52.064;4.920;2023-11-21T10:32:19;12.15;;;8.60;;
42702;SDS011;28341;52.064;4.920;2023-11-21T10:34:24;15.60;;;9.40;;
42702;SDS011;28341;52.064;4.920;2023-11-21T10:36:28;15.35;;;10.00;;
42702;SDS011;28341;52.064;4.920;2023-11-21T10:38:35;19.48;;;10.75;;
42702;SDS011;28341;52.064;4.920;2023-11-21T10:40:51;16.90;;;10.13;;
42702;SDS011;28341;52.064;4.920;2023-11-21T10:42:59;18.13;;;10.30;;
42702;SDS011;28341;52.064;4.920;2023-11-21T10:45:11;16.67;;;10.43;;
42702;SDS011;28341;52.064;4.920;2023-11-21T10:47:16;19.67;;;11.07;;
42702;SDS011;28341;52.064;4.920;2023-11-21T10:49:24;19.75;;;12.00;;
42702;SDS011;28341;52.064;4.920;2023-11-21T10:51:29;23.42;;;11.98;;
42702;SDS011;28341;52.064;4.920;2023-11-21T10:53:33;19.33;;;12.00;;
42702;SDS011;28341;52.064;4.920;2023-11-21T10:55:37;16.10;;;11.00;;
42702;SDS011;28341;52.064;4.920;2023-11-21T10:57:44;23.45;;;13.45;;
42702;SDS011;28341;52.064;4.920;2023-11-21T10:59:53;22.73;;;13.40;;
42702;SDS011;28341;52.064;4.920;2023-11-21T11:01:57;20.33;;;12.30;;
42702;SDS011;28341;52.064;4.920;2023-11-21T11:04:04;25.65;;;14.27;;
42702;SDS011;28341;52.064;4.920;2023-11-21T11:06:09;25.00;;;14.38;;
42702;SDS011;28341;52.064;4.920;2023-11-21T11:08:14;25.65;;;13.90;;
42702;SDS011;28341;52.064;4.920;2023-11-21T11:10:19;26.92;;;15.00;;
42702;SDS011;28341;52.064;4.920;2023-11-21T11:12:26;31.00;;;16.10;;
42702;SDS011;28341;52.064;4.920;2023-11-21T11:14:31;29.23;;;15.43;;
42702;SDS011;28341;52.064;4.920;2023-11-21T11:16:38;29.42;;;16.30;;
42702;SDS011;28341;52.064;4.920;2023-11-21T11:18:44;31.88;;;17.40;;
42702;SDS011;28341;52.064;4.920;2023-11-21T11:20:47;31.67;;;18.20;;
42702;SDS011;28341;52.064;4.920;2023-11-21T11:23:07;30.33;;;17.75;;
42702;SDS011;28341;52.064;4.920;2023-11-21T11:25:38;33.28;;;18.52;;
42702;SDS011;28341;52.064;4.920;2023-11-21T11:27:54;31.02;;;16.90;;
42702;SDS011;28341;52.064;4.920;2023-11-21T11:30:06;27.60;;;15.75;;
42702;SDS011;28341;52.064;4.920;2023-11-21T11:32:29;30.63;;;16.63;;
42702;SDS011;28341;52.064;4.920;2023-11-21T11:34:45;33.55;;;18.30;;
42702;SDS011;28341;52.064;4.920;2023-11-21T11:36:54;35.53;;;17.52;;
42702;SDS011;28341;52.064;4.920;2023-11-21T11:39:13;31.38;;;16.77;;
42702;SDS011;28341;52.064;4.920;2023-11-21T11:41:31;31.90;;;18.08;;
42702;SDS011;28341;52.064;4.920;2023-11-21T11:43:36;33.28;;;17.70;;
42702;SDS011;28341;52.064;4.920;2023-11-21T11:45:44;28.13;;;16.10;;
42702;SDS011;28341;52.064;4.920;2023-11-21T11:47:56;34.03;;;16.95;;
42702;SDS011;28341;52.064;4.920;2023-11-21T11:50:01;32.55;;;16.70;;
42702;SDS011;28341;52.064;4.920;2023-11-21T11:54:35;29.70;;;16.55;;
42702;SDS011;28341;52.064;4.920;2023-11-21T11:56:40;28.77;;;16.65;;
42702;SDS011;28341;52.064;4.920;2023-11-21T11:58:46;30.52;;;15.80;;
42702;SDS011;28341;52.064;4.920;2023-11-21T12:02:58;31.02;;;16.20;;
42702;SDS011;28341;52.064;4.920;2023-11-21T12:05:06;26.30;;;15.18;;
42702;SDS011;28341;52.064;4.920;2023-11-21T12:07:10;33.55;;;17.58;;
42702;SDS011;28341;52.064;4.920;2023-11-21T12:09:18;28.48;;;16.50;;
42702;SDS011;28341;52.064;4.920;2023-11-21T12:11:20;32.30;;;17.83;;
42702;SDS011;28341;52.064;4.920;2023-11-21T12:13:24;32.90;;;17.20;;
42702;SDS011;28341;52.064;4.920;2023-11-21T12:15:29;33.80;;;16.88;;
42702;SDS011;28341;52.064;4.920;2023-11-21T12:17:33;36.83;;;17.95;;
42702;SDS011;28341;52.064;4.920;2023-11-21T12:19:38;32.75;;;16.73;;